Time;durP1;ratioP1;P1;durP2;ratioP2;P2;SDS_P1;SDS_P2;PMS_P1;PMS_P2;Temp;Humidity;BMP_temperature;BMP_pressure;BME280_temperature;BME280_humidity;BME280_pressure;Samples;Min_cycle;Max_cycle;Signal;HPM_P1;HPM_P2
2023/12/15 00:00:01;;;;;;;7.10;4.15;;;6.60;99.90;;;;;;5031790;28;20382;-84
2023/12/15 00:02:26;;;;;;;11.18;6.03;;;6.50;99.90;;;;;;5062501;28;20021;-84
2023/12/15 00:04:52;;;;;;;10.38;4.85;;;6.50;99.90;;;;;;5048590;28;20055;-84
2023/12/15 00:07:18;;;;;;;10.38;6.53;;;6.60;99.90;;;;;;5048292;28;20028;-85
2023/12/15 00:09:43;;;;;;;13.32;6.32;;;6.60;99.90;;;;;;5032642;28;20029;-84
2023/12/15 00:12:09;;;;;;;9.45;5.57;;;6.60;99.90;;;;;;5040104;28;20036;-84
2023/12/15 00:14:35;;;;;;;9.20;5.47;;;6.60;99.90;;;;;;5046633;28;20033;-84
2023/12/15 00:17:01;;;;;;;13.52;8.05;;;6.60;99.90;;;;;;5064414;28;20478;-84
2023/12/15 00:19:27;;;;;;;11.85;6.18;;;6.70;99.90;;;;;;5032293;28;20404;-83
2023/12/15 00:21:53;;;;;;;13.27;8.07;;;6.60;99.90;;;;;;5046539;28;20025;-84
2023/12/15 00:24:19;;;;;;;10.30;7.43;;;6.70;99.90;;;;;;5035318;28;20028;-84
2023/12/15 00:26:44;;;;;;;13.07;7.75;;;6.70;99.90;;;;;;5032358;28;20036;-84
2023/12/15 00:29:10;;;;;;;11.38;7.40;;;6.70;99.90;;;;;;5038064;28;20067;-84
2023/12/15 00:31:36;;;;;;;13.85;7.60;;;6.70;99.90;;;;;;5046809;28;20041;-85
2023/12/15 00:34:01;;;;;;;10.82;7.55;;;6.70;99.90;;;;;;5029563;28;20045;-84
2023/12/15 00:36:27;;;;;;;12.80;7.47;;;6.70;99.90;;;;;;5032014;28;20032;-85
2023/12/15 00:38:53;;;;;;;11.05;6.85;;;6.70;99.90;;;;;;5046346;28;20410;-84
2023/12/15 00:41:19;;;;;;;9.90;6.28;;;6.70;99.90;;;;;;5048698;28;20056;-84
2023/12/15 00:43:44;;;;;;;9.85;6.00;;;6.70;99.90;;;;;;5032118;28;20029;-85
2023/12/15 00:46:10;;;;;;;9.57;5.47;;;6.70;99.90;;;;;;5035926;28;20115;-84
2023/12/15 00:48:36;;;;;;;8.02;5.03;;;6.70;99.90;;;;;;5032007;28;20029;-84
2023/12/15 00:51:01;;;;;;;11.38;5.78;;;6.70;99.90;;;;;;5037744;28;20037;-83
2023/12/15 00:53:32;;;;;;;10.30;5.15;;;6.70;99.90;;;;;;5039718;28;20103;-84
2023/12/15 00:55:59;;;;;;;8.25;5.22;;;6.60;99.90;;;;;;5035558;28;20029;-84
2023/12/15 00:58:24;;;;;;;8.93;5.25;;;6.70;99.90;;;;;;5036147;28;20036;-84
2023/12/15 01:00:50;;;;;;;6.40;4.22;;;6.60;99.90;;;;;;5049016;28;20033;-84
2023/12/15 01:03:15;;;;;;;9.98;5.78;;;6.70;99.90;;;;;;5048650;28;20086;-84
2023/12/15 01:05:41;;;;;;;10.68;6.25;;;6.60;99.90;;;;;;5035863;28;20127;-84
2023/12/15 01:08:07;;;;;;;7.40;5.63;;;6.70;99.90;;;;;;5032181;28;20115;-84
2023/12/15 01:10:32;;;;;;;10.43;5.00;;;6.60;99.90;;;;;;5048441;28;20017;-84
2023/12/15 01:12:58;;;;;;;8.65;5.97;;;6.70;99.90;;;;;;5032210;28;20028;-84
2023/12/15 01:15:24;;;;;;;15.27;7.68;;;6.70;99.90;;;;;;5050077;28;20493;-84
2023/12/15 01:17:49;;;;;;;9.90;5.70;;;6.70;99.90;;;;;;5052003;28;20163;-84
2023/12/15 01:20:16;;;;;;;13.45;8.30;;;6.70;99.90;;;;;;5066567;28;20033;-84
2023/12/15 01:22:42;;;;;;;14.63;8.80;;;6.70;99.90;;;;;;5052350;28;20392;-84
2023/12/15 01:25:09;;;;;;;9.52;6.70;;;6.70;99.90;;;;;;5035522;28;20029;-84
2023/12/15 01:27:35;;;;;;;11.35;6.47;;;6.70;99.90;;;;;;5035710;28;20025;-84
2023/12/15 01:30:00;;;;;;;10.43;5.97;;;6.70;99.90;;;;;;5068714;28;20040;-84
2023/12/15 01:32:26;;;;;;;12.23;8.70;;;6.70;99.90;;;;;;5034041;28;20024;-84
2023/12/15 01:34:52;;;;;;;12.20;7.55;;;6.70;99.90;;;;;;5034202;28;20044;-85
2023/12/15 01:37:17;;;;;;;11.18;7.13;;;6.70;99.90;;;;;;5051427;28;20033;-85
2023/12/15 01:39:43;;;;;;;9.90;6.22;;;6.70;99.90;;;;;;5052417;28;20041;-84
2023/12/15 01:42:09;;;;;;;9.75;5.75;;;6.80;99.90;;;;;;5035462;28;20032;-84
2023/12/15 01:44:34;;;;;;;12.68;6.72;;;6.70;99.90;;;;;;5035120;28;20025;-84
2023/12/15 01:47:01;;;;;;;12.20;7.57;;;6.80;99.90;;;;;;5051515;28;20107;-83
2023/12/15 01:49:28;;;;;;;12.30;7.20;;;6.80;99.90;;;;;;5036202;28;20024;-82
2023/12/15 01:51:55;;;;;;;11.88;7.20;;;6.80;99.90;;;;;;5038889;28;20029;-82
2023/12/15 01:54:20;;;;;;;10.77;6.10;;;6.80;99.90;;;;;;5050722;28;20079;-83
2023/12/15 01:56:46;;;;;;;9.25;6.03;;;6.80;99.90;;;;;;5049962;28;20501;-82
2023/12/15 01:59:12;;;;;;;10.20;6.40;;;6.80;99.90;;;;;;5050914;28;20025;-82
2023/12/15 02:01:37;;;;;;;12.43;7.28;;;6.80;99.90;;;;;;5048554;28;20104;-83
2023/12/15 02:04:04;;;;;;;12.43;7.22;;;6.80;99.90;;;;;;5040086;28;20441;-83
2023/12/15 02:06:30;;;;;;;12.93;7.80;;;6.90;99.90;;;;;;5050595;28;20021;-82
2023/12/15 02:08:55;;;;;;;12.15;8.15;;;6.90;99.90;;;;;;5042570;28;20366;-83
2023/12/15 02:11:21;;;;;;;11.10;6.60;;;6.90;99.90;;;;;;5048924;28;20409;-83
2023/12/15 02:13:46;;;;;;;13.98;9.73;;;6.90;99.90;;;;;;5036993;28;20033;-83
2023/12/15 02:16:12;;;;;;;13.25;9.05;;;6.90;99.90;;;;;;5049823;28;20021;-84
2023/12/15 02:18:38;;;;;;;17.02;11.98;;;7.00;99.90;;;;;;5063976;28;20064;-83
2023/12/15 02:21:04;;;;;;;22.77;15.05;;;7.00;99.90;;;;;;5050532;28;20074;-83
2023/12/15 02:23:29;;;;;;;21.63;13.02;;;7.00;99.90;;;;;;5067558;28;20034;-83
2023/12/15 02:25:55;;;;;;;22.52;15.15;;;7.00;99.90;;;;;;5045913;28;20124;-82
2023/12/15 02:28:20;;;;;;;18.63;11.48;;;7.00;99.90;;;;;;5049610;28;20033;-82
2023/12/15 02:30:46;;;;;;;21.80;13.45;;;7.00;99.90;;;;;;5033906;28;20071;-83
2023/12/15 02:33:12;;;;;;;25.02;14.95;;;7.10;99.90;;;;;;5081460;28;20071;-82
2023/12/15 02:35:40;;;;;;;19.98;13.18;;;7.10;99.90;;;;;;5046583;28;20056;-82
2023/12/15 02:38:08;;;;;;;19.50;13.23;;;7.10;99.90;;;;;;5065658;28;20366;-81
2023/12/15 02:40:35;;;;;;;23.23;14.70;;;7.10;99.90;;;;;;5049933;28;20029;-83
2023/12/15 02:43:01;;;;;;;21.52;12.25;;;7.20;99.90;;;;;;5039564;28;20082;-83
2023/12/15 02:45:27;;;;;;;24.90;14.43;;;7.20;99.90;;;;;;5046179;28;20029;-82
2023/12/15 02:47:53;;;;;;;28.42;17.70;;;7.20;99.90;;;;;;5037468;28;20504;-82
2023/12/15 02:50:18;;;;;;;21.88;14.13;;;7.20;99.90;;;;;;5037229;28;20021;-83
2023/12/15 02:52:44;;;;;;;21.75;14.07;;;7.20;99.90;;;;;;5050586;28;20040;-83
2023/12/15 02:55:12;;;;;;;19.35;12.82;;;7.20;99.90;;;;;;5032112;28;20040;-83
2023/12/15 02:57:39;;;;;;;18.25;11.57;;;7.20;99.90;;;;;;5033537;28;20036;-83
2023/12/15 03:00:06;;;;;;;17.70;10.60;;;7.20;99.90;;;;;;5050129;28;20025;-83
2023/12/15 03:02:31;;;;;;;17.23;10.35;;;7.20;99.90;;;;;;5050111;28;20021;-82
2023/12/15 03:04:57;;;;;;;19.70;11.30;;;7.30;99.90;;;;;;5033459;28;20039;-83
2023/12/15 03:07:22;;;;;;;24.38;15.00;;;7.30;99.90;;;;;;5049842;28;20031;-84
2023/12/15 03:09:48;;;;;;;22.65;13.40;;;7.30;99.90;;;;;;5048404;28;20409;-83
2023/12/15 03:12:14;;;;;;;23.67;13.60;;;7.30;99.90;;;;;;5030664;28;20136;-83
2023/12/15 03:14:39;;;;;;;20.70;12.20;;;7.40;99.90;;;;;;5050111;28;20044;-83
2023/12/15 03:17:05;;;;;;;42.13;23.80;;;7.40;99.90;;;;;;5047577;28;20033;-83
2023/12/15 03:19:31;;;;;;;44.88;24.77;;;7.40;99.90;;;;;;5050318;28;20029;-82
2023/12/15 03:21:56;;;;;;;38.13;21.83;;;7.40;99.90;;;;;;5049892;28;20029;-82
2023/12/15 03:24:22;;;;;;;35.53;20.42;;;7.40;99.90;;;;;;5049306;28;20033;-83
2023/12/15 03:26:47;;;;;;;29.00;16.98;;;7.50;99.90;;;;;;5046781;28;20087;-83
2023/12/15 03:29:13;;;;;;;32.25;17.40;;;7.40;99.90;;;;;;5049078;28;20033;-83
2023/12/15 03:31:41;;;;;;;30.88;16.17;;;7.50;99.90;;;;;;5048933;28;20072;-82
2023/12/15 03:34:07;;;;;;;25.08;15.23;;;7.50;99.90;;;;;;5032956;28;20056;-82
2023/12/15 03:36:38;;;;;;;30.95;18.27;;;7.50;99.90;;;;;;5064266;28;20029;-82
2023/12/15 03:39:05;;;;;;;31.52;15.82;;;7.50;99.90;;;;;;5049526;28;20068;-82
2023/12/15 03:41:31;;;;;;;22.85;13.32;;;7.50;99.90;;;;;;5049068;28;20075;-83
2023/12/15 03:43:57;;;;;;;32.38;16.67;;;7.50;99.90;;;;;;5049138;28;20123;-83
2023/12/15 03:46:23;;;;;;;28.10;14.85;;;7.50;99.90;;;;;;5036153;28;20116;-83
2023/12/15 03:48:48;;;;;;;44.72;22.50;;;7.60;99.90;;;;;;5049038;28;20025;-82
2023/12/15 03:51:14;;;;;;;32.75;17.83;;;7.60;99.90;;;;;;5048550;28;20029;-82
2023/12/15 03:53:40;;;;;;;34.42;19.30;;;7.60;99.90;;;;;;5046898;28;20080;-82
2023/12/15 03:56:06;;;;;;;31.55;16.92;;;7.60;99.90;;;;;;5050118;28;20094;-82
2023/12/15 03:58:31;;;;;;;29.85;15.68;;;7.60;99.90;;;;;;5033902;28;20440;-82
2023/12/15 04:00:57;;;;;;;28.45;15.73;;;7.60;99.90;;;;;;5046598;28;20123;-82
2023/12/15 04:03:23;;;;;;;28.73;14.85;;;7.60;99.90;;;;;;5049068;28;20017;-82
2023/12/15 04:05:49;;;;;;;33.70;18.05;;;7.60;99.90;;;;;;5046807;28;20107;-83
2023/12/15 04:08:15;;;;;;;30.95;15.43;;;7.60;99.90;;;;;;5048785;28;20056;-83
2023/12/15 04:10:40;;;;;;;30.65;15.32;;;7.60;99.90;;;;;;5047500;28;20045;-83
2023/12/15 04:13:06;;;;;;;22.13;11.93;;;7.70;99.90;;;;;;5063656;28;20021;-83
2023/12/15 04:15:32;;;;;;;30.58;16.27;;;7.70;99.90;;;;;;5047855;28;20477;-82
2023/12/15 04:18:02;;;;;;;24.75;13.70;;;7.70;99.90;;;;;;5031651;28;20049;-82
2023/12/15 04:20:28;;;;;;;33.17;15.90;;;7.70;99.90;;;;;;5082303;28;20056;-82
2023/12/15 04:22:53;;;;;;;30.85;15.75;;;7.70;99.90;;;;;;5049051;28;20056;-83
2023/12/15 04:25:19;;;;;;;39.90;17.92;;;7.70;99.90;;;;;;5045917;28;20119;-82
2023/12/15 04:27:45;;;;;;;37.15;19.33;;;7.80;99.90;;;;;;5064583;28;20069;-83
2023/12/15 04:30:11;;;;;;;34.90;17.67;;;7.80;99.90;;;;;;5028179;28;20063;-83
2023/12/15 04:32:36;;;;;;;34.65;16.30;;;7.80;99.90;;;;;;5044459;28;20025;-82
2023/12/15 04:35:02;;;;;;;31.65;16.20;;;7.80;99.90;;;;;;5046433;28;20052;-82
2023/12/15 04:37:28;;;;;;;31.42;16.33;;;7.80;99.90;;;;;;5031845;28;20025;-82
2023/12/15 04:39:53;;;;;;;38.58;18.85;;;7.90;99.90;;;;;;5049698;28;20444;-82
2023/12/15 04:42:19;;;;;;;42.80;18.52;;;7.90;99.90;;;;;;5048310;28;20013;-82
2023/12/15 04:44:45;;;;;;;45.85;22.77;;;7.90;99.90;;;;;;5048277;28;20044;-82
2023/12/15 04:47:10;;;;;;;40.17;19.67;;;7.90;99.90;;;;;;5045352;28;20018;-82
2023/12/15 04:49:36;;;;;;;31.75;15.55;;;7.90;99.90;;;;;;5035304;28;20035;-83
2023/12/15 04:52:01;;;;;;;36.22;19.38;;;7.80;99.90;;;;;;5040200;28;20025;-82
2023/12/15 04:54:27;;;;;;;46.72;21.83;;;7.90;99.90;;;;;;5039898;28;20044;-83
2023/12/15 04:56:53;;;;;;;43.67;21.35;;;7.90;99.90;;;;;;5052394;28;20455;-82
2023/12/15 04:59:19;;;;;;;40.00;19.17;;;7.90;99.90;;;;;;5066029;28;20124;-83
2023/12/15 05:01:44;;;;;;;31.52;17.38;;;7.90;99.90;;;;;;5050414;28;20481;-82
2023/12/15 05:04:10;;;;;;;38.92;17.30;;;7.90;99.90;;;;;;5050027;28;20465;-82
2023/12/15 05:06:35;;;;;;;30.73;15.77;;;8.00;99.90;;;;;;5063626;28;20017;-82
2023/12/15 05:09:04;;;;;;;36.15;17.00;;;8.00;99.90;;;;;;5052342;28;20466;-83
2023/12/15 05:11:36;;;;;;;50.70;23.20;;;8.00;99.90;;;;;;5039024;28;20060;-82
2023/12/15 05:14:02;;;;;;;51.08;24.38;;;8.00;99.90;;;;;;5048878;28;20412;-82
2023/12/15 05:16:32;;;;;;;55.33;25.90;;;8.00;99.90;;;;;;5051026;28;20362;-82
2023/12/15 05:18:58;;;;;;;47.08;24.05;;;8.00;99.90;;;;;;5052066;28;20674;-83
2023/12/15 05:21:23;;;;;;;48.50;23.25;;;8.10;99.90;;;;;;5049981;28;20028;-81
2023/12/15 05:23:49;;;;;;;63.20;28.70;;;8.10;99.90;;;;;;5038221;28;20048;-82
2023/12/15 05:26:15;;;;;;;48.70;24.88;;;8.10;99.90;;;;;;5051655;28;20025;-82
2023/12/15 05:28:41;;;;;;;59.85;27.80;;;8.10;99.90;;;;;;5032754;28;20121;-82
2023/12/15 05:31:07;;;;;;;67.28;31.25;;;8.20;99.90;;;;;;5050170;28;20507;-82
2023/12/15 05:33:32;;;;;;;60.92;28.92;;;8.10;99.90;;;;;;5052159;28;20298;-82
2023/12/15 05:35:58;;;;;;;58.67;27.60;;;8.20;99.90;;;;;;5032576;28;20041;-82
2023/12/15 05:38:23;;;;;;;69.15;31.25;;;8.20;99.90;;;;;;5050504;28;20025;-82
2023/12/15 05:40:49;;;;;;;65.18;31.77;;;8.20;99.90;;;;;;5084425;28;20485;-83
2023/12/15 05:43:15;;;;;;;52.90;27.35;;;8.20;99.90;;;;;;5050928;28;20071;-82
2023/12/15 05:45:40;;;;;;;61.08;29.33;;;8.20;99.90;;;;;;5052426;28;20070;-82
2023/12/15 05:48:06;;;;;;;48.00;24.50;;;8.20;99.90;;;;;;5063518;28;20040;-82
2023/12/15 05:50:32;;;;;;;51.78;26.80;;;8.20;99.90;;;;;;5044319;28;20030;-83
2023/12/15 05:52:57;;;;;;;51.53;25.30;;;8.10;99.90;;;;;;5067150;28;20025;-82
2023/12/15 05:55:23;;;;;;;56.47;28.75;;;8.10;99.90;;;;;;5048188;28;20033;-82
2023/12/15 05:57:48;;;;;;;48.00;24.20;;;8.10;99.90;;;;;;5052483;28;20452;-82
2023/12/15 06:00:14;;;;;;;53.88;28.83;;;8.10;99.90;;;;;;5050708;28;20035;-80
2023/12/15 06:02:42;;;;;;;51.05;26.83;;;8.10;99.90;;;;;;5051024;28;20032;-82
2023/12/15 06:05:08;;;;;;;51.05;27.45;;;8.10;99.90;;;;;;5052079;28;20028;-82
2023/12/15 06:07:34;;;;;;;44.85;22.88;;;8.10;99.90;;;;;;5037886;28;20478;-82
2023/12/15 06:10:00;;;;;;;39.22;21.20;;;8.20;99.90;;;;;;5067042;28;20374;-82
2023/12/15 06:12:25;;;;;;;51.67;25.08;;;8.10;99.90;;;;;;5067209;28;20044;-82
2023/12/15 06:14:51;;;;;;;43.83;24.42;;;8.10;99.90;;;;;;5067500;28;20061;-83
2023/12/15 06:17:17;;;;;;;42.65;22.30;;;8.20;99.90;;;;;;5049346;28;20100;-82
2023/12/15 06:19:42;;;;;;;41.95;21.48;;;8.10;99.90;;;;;;5067162;28;20432;-83
2023/12/15 06:22:08;;;;;;;39.47;19.83;;;8.10;99.90;;;;;;5050742;28;20036;-83
2023/12/15 06:24:34;;;;;;;45.03;23.65;;;8.20;99.90;;;;;;5048989;28;20024;-83
2023/12/15 06:26:59;;;;;;;36.80;19.77;;;8.10;99.90;;;;;;5049419;28;20029;-83
2023/12/15 06:29:25;;;;;;;32.40;17.25;;;8.10;99.90;;;;;;5050113;28;20035;-83
2023/12/15 06:31:51;;;;;;;40.83;20.77;;;8.10;99.90;;;;;;5067358;28;20389;-83
2023/12/15 06:34:16;;;;;;;50.95;26.90;;;8.10;99.90;;;;;;5050587;28;20040;-83
2023/12/15 06:36:42;;;;;;;47.10;24.10;;;8.20;99.90;;;;;;5050714;28;20401;-83
2023/12/15 06:39:08;;;;;;;50.78;25.75;;;8.10;99.90;;;;;;5048524;28;20449;-83
2023/12/15 06:41:33;;;;;;;62.13;29.23;;;8.20;99.90;;;;;;5065248;28;20394;-82
2023/12/15 06:43:59;;;;;;;64.10;32.17;;;8.30;99.90;;;;;;5047168;28;20042;-82
2023/12/15 06:46:25;;;;;;;69.45;33.00;;;8.30;99.90;;;;;;5050056;28;20404;-82
2023/12/15 06:48:53;;;;;;;57.08;28.35;;;8.40;99.90;;;;;;5033044;28;20021;-83
2023/12/15 06:51:19;;;;;;;48.15;23.92;;;8.40;99.90;;;;;;5051442;28;20644;-82
2023/12/15 06:53:44;;;;;;;42.72;21.95;;;8.40;99.90;;;;;;5031922;28;20247;-82
2023/12/15 06:56:10;;;;;;;37.33;18.88;;;8.30;99.90;;;;;;5049726;28;20033;-83
2023/12/15 06:58:36;;;;;;;36.83;18.00;;;8.30;99.90;;;;;;5050282;28;20021;-82
2023/12/15 07:01:01;;;;;;;60.08;27.55;;;8.40;99.90;;;;;;5050093;28;20025;-83
2023/12/15 07:03:28;;;;;;;55.55;26.55;;;8.40;99.90;;;;;;5038819;28;20105;-82
2023/12/15 07:05:54;;;;;;;53.58;22.75;;;8.40;99.90;;;;;;5064582;28;20029;-83
2023/12/15 07:08:20;;;;;;;45.35;21.55;;;8.40;99.90;;;;;;5032116;28;20079;-83
2023/12/15 07:10:45;;;;;;;38.80;18.73;;;8.40;99.90;;;;;;5049880;28;20087;-83
2023/12/15 07:13:11;;;;;;;37.03;18.45;;;8.40;99.90;;;;;;5049298;28;20448;-82
2023/12/15 07:15:38;;;;;;;29.23;15.55;;;8.40;99.90;;;;;;5050673;28;20052;-83
2023/12/15 07:18:03;;;;;;;29.15;14.20;;;8.40;99.90;;;;;;5049557;28;20232;-83
2023/12/15 07:20:29;;;;;;;31.02;14.45;;;8.40;99.90;;;;;;5046205;28;20496;-82
2023/12/15 07:22:55;;;;;;;29.77;14.07;;;8.40;99.90;;;;;;5038672;28;20037;-83
2023/12/15 07:25:20;;;;;;;28.48;14.18;;;8.40;99.90;;;;;;5047948;28;20399;-83
2023/12/15 07:27:46;;;;;;;26.00;12.57;;;8.50;99.90;;;;;;5047516;28;20116;-82
2023/12/15 07:30:12;;;;;;;21.08;10.57;;;8.40;99.90;;;;;;5066208;28;20077;-83
2023/12/15 07:32:38;;;;;;;21.67;10.75;;;8.40;99.90;;;;;;5049229;28;20083;-83
2023/12/15 07:35:05;;;;;;;24.27;12.60;;;8.50;99.90;;;;;;5047099;28;20048;-83
2023/12/15 07:37:31;;;;;;;26.30;12.02;;;8.50;99.90;;;;;;5048696;28;20032;-83
2023/12/15 07:39:56;;;;;;;26.75;12.23;;;8.50;99.90;;;;;;5060818;28;20417;-82
2023/12/15 07:42:22;;;;;;;31.65;13.02;;;8.50;99.90;;;;;;5049358;28;20021;-82
2023/12/15 07:44:48;;;;;;;29.70;14.20;;;8.50;99.90;;;;;;5036812;28;20485;-82
2023/12/15 07:47:13;;;;;;;30.45;13.27;;;8.60;99.90;;;;;;5048983;28;20040;-82
2023/12/15 07:49:39;;;;;;;23.33;11.35;;;8.50;99.90;;;;;;5078398;28;20123;-84
2023/12/15 07:52:05;;;;;;;25.92;12.73;;;8.60;99.90;;;;;;5048268;28;20480;-83
2023/12/15 07:54:30;;;;;;;25.40;12.23;;;8.60;99.90;;;;;;5048494;28;20306;-82
2023/12/15 07:56:56;;;;;;;35.78;16.90;;;8.60;99.90;;;;;;5048226;28;20029;-83
2023/12/15 07:59:22;;;;;;;44.55;21.05;;;8.60;99.90;;;;;;5027679;28;20484;-82
2023/12/15 08:01:49;;;;;;;35.72;18.30;;;8.70;99.90;;;;;;5040700;28;20041;-82
2023/12/15 08:04:15;;;;;;;39.22;19.10;;;8.60;99.90;;;;;;5068737;28;20112;-83
2023/12/15 08:06:40;;;;;;;46.28;21.27;;;8.70;99.90;;;;;;5053344;28;20691;-83
2023/12/15 08:09:06;;;;;;;42.78;19.92;;;8.70;99.90;;;;;;5016396;28;20451;-83
2023/12/15 08:11:32;;;;;;;36.42;20.33;;;8.70;99.90;;;;;;5051614;28;20033;-83
2023/12/15 08:13:58;;;;;;;49.35;24.33;;;8.70;99.90;;;;;;5051641;28;20056;-83
2023/12/15 08:16:24;;;;;;;47.40;24.60;;;8.80;99.90;;;;;;5035086;28;20469;-82
2023/12/15 08:18:50;;;;;;;54.38;26.02;;;8.80;99.90;;;;;;5049451;28;20067;-82
2023/12/15 08:21:15;;;;;;;46.05;23.88;;;8.80;99.90;;;;;;5035570;28;20029;-81
2023/12/15 08:23:41;;;;;;;61.08;29.25;;;8.80;99.90;;;;;;5026643;28;20082;-83
2023/12/15 08:26:07;;;;;;;58.45;27.45;;;8.90;99.90;;;;;;5034823;28;20462;-82
2023/12/15 08:28:33;;;;;;;63.20;29.67;;;8.90;99.90;;;;;;5033070;28;20032;-81
2023/12/15 08:30:58;;;;;;;52.15;26.30;;;8.90;99.90;;;;;;5018058;28;20058;-83
2023/12/15 08:33:24;;;;;;;52.67;25.67;;;8.90;99.90;;;;;;5035271;28;20068;-82
2023/12/15 08:35:50;;;;;;;53.92;28.75;;;8.90;99.90;;;;;;5042110;28;20055;-82
2023/12/15 08:38:16;;;;;;;53.45;27.83;;;9.00;99.90;;;;;;5034007;28;20052;-82
2023/12/15 08:40:41;;;;;;;57.67;27.63;;;9.00;99.90;;;;;;5066955;28;20041;-83
2023/12/15 08:43:07;;;;;;;61.42;30.02;;;8.90;99.90;;;;;;5026635;28;20473;-83
2023/12/15 08:45:33;;;;;;;49.08;26.65;;;9.00;99.90;;;;;;5018802;28;20072;-82
2023/12/15 08:47:58;;;;;;;45.83;25.27;;;9.00;99.90;;;;;;5018485;28;20040;-82
2023/12/15 08:50:25;;;;;;;43.60;23.08;;;9.00;99.90;;;;;;5049755;28;20435;-83
2023/12/15 08:52:51;;;;;;;40.80;21.30;;;9.00;99.90;;;;;;5034140;28;20376;-84
2023/12/15 08:55:16;;;;;;;40.95;19.05;;;9.00;99.90;;;;;;5026166;28;20043;-83
2023/12/15 08:57:42;;;;;;;50.83;25.63;;;9.00;99.90;;;;;;5034705;28;20531;-82
2023/12/15 09:00:08;;;;;;;50.67;25.38;;;9.00;99.90;;;;;;5033339;28;20404;-82
2023/12/15 09:02:34;;;;;;;43.00;23.20;;;9.00;99.90;;;;;;5025735;28;20548;-81
2023/12/15 09:05:00;;;;;;;38.75;20.00;;;9.00;99.90;;;;;;5025855;28;20041;-82
2023/12/15 09:07:26;;;;;;;42.30;22.27;;;9.10;99.90;;;;;;5026150;28;20036;-82
2023/12/15 09:09:52;;;;;;;45.80;22.73;;;9.10;99.90;;;;;;5057692;28;20041;-82
2023/12/15 09:12:18;;;;;;;48.22;24.08;;;9.10;99.90;;;;;;5050893;28;20370;-83
2023/12/15 09:14:43;;;;;;;44.83;22.90;;;9.10;99.90;;;;;;5033983;28;20571;-82
2023/12/15 09:17:13;;;;;;;39.95;20.52;;;9.10;99.90;;;;;;5035636;28;20036;-83
2023/12/15 09:19:40;;;;;;;35.60;18.05;;;9.20;99.90;;;;;;5033469;28;20055;-83
2023/12/15 09:22:06;;;;;;;39.90;21.88;;;9.20;99.90;;;;;;5029211;28;20049;-83
2023/12/15 09:24:33;;;;;;;38.03;19.90;;;9.20;99.90;;;;;;5039918;28;20049;-82
2023/12/15 09:27:00;;;;;;;36.50;20.30;;;9.20;99.90;;;;;;5063830;28;20112;-83
2023/12/15 09:29:26;;;;;;;41.65;23.17;;;9.20;99.90;;;;;;5044337;28;20025;-83
2023/12/15 09:31:51;;;;;;;37.30;22.10;;;9.20;99.90;;;;;;5077592;28;20391;-83
2023/12/15 09:34:19;;;;;;;30.25;17.75;;;9.20;99.90;;;;;;5036135;28;20057;-83
2023/12/15 09:36:44;;;;;;;34.60;19.83;;;9.30;99.90;;;;;;5049460;28;20029;-83
2023/12/15 09:39:10;;;;;;;25.42;15.27;;;9.20;99.90;;;;;;5049472;28;20479;-83
2023/12/15 09:41:35;;;;;;;42.33;21.85;;;9.30;99.90;;;;;;5033297;28;20525;-82
2023/12/15 09:44:01;;;;;;;35.13;19.55;;;9.30;99.90;;;;;;5050275;28;20045;-82
2023/12/15 09:46:27;;;;;;;30.05;18.40;;;9.30;99.90;;;;;;5045100;28;20036;-83
2023/12/15 09:48:53;;;;;;;38.00;19.88;;;9.30;99.90;;;;;;5066562;28;20017;-83
2023/12/15 09:51:25;;;;;;;39.97;22.52;;;9.30;99.90;;;;;;5050850;28;20035;-83
2023/12/15 09:53:53;;;;;;;36.78;20.92;;;9.30;99.90;;;;;;5048403;28;20029;-83
2023/12/15 09:56:19;;;;;;;33.10;18.73;;;9.40;99.90;;;;;;5047058;28;20037;-83
2023/12/15 09:58:45;;;;;;;27.70;16.52;;;9.40;99.90;;;;;;5046752;28;20040;-82
2023/12/15 10:01:11;;;;;;;29.08;15.45;;;9.40;99.90;;;;;;5046417;28;20112;-82
2023/12/15 10:03:37;;;;;;;36.55;20.65;;;9.50;99.90;;;;;;5045434;28;20032;-82
2023/12/15 10:06:03;;;;;;;38.00;19.88;;;9.40;99.90;;;;;;5064210;28;20053;-82
2023/12/15 10:08:45;;;;;;;31.77;18.88;;;9.40;99.90;;;;;;5063156;28;20504;-82
2023/12/15 10:11:11;;;;;;;31.08;18.75;;;9.50;99.90;;;;;;5041709;28;20025;-83
2023/12/15 10:13:40;;;;;;;41.83;23.33;;;9.50;99.90;;;;;;5048446;28;20417;-82
2023/12/15 10:16:08;;;;;;;42.83;22.50;;;9.50;99.90;;;;;;5080316;28;20098;-82
2023/12/15 10:18:33;;;;;;;36.67;19.67;;;9.50;99.90;;;;;;5047381;28;20029;-83
2023/12/15 10:20:59;;;;;;;40.55;21.63;;;9.50;99.90;;;;;;5080791;28;20291;-83
2023/12/15 10:23:26;;;;;;;39.17;22.80;;;9.50;99.90;;;;;;5048230;28;20112;-83
2023/12/15 10:25:53;;;;;;;42.97;22.48;;;9.60;99.90;;;;;;5046996;28;20051;-83
2023/12/15 10:28:20;;;;;;;42.13;21.70;;;9.60;99.90;;;;;;5048113;28;20454;-84
2023/12/15 10:30:48;;;;;;;37.80;19.73;;;9.60;99.90;;;;;;5032328;28;20079;-82
2023/12/15 10:33:18;;;;;;;38.10;20.40;;;9.60;99.90;;;;;;5029879;28;20031;-83
2023/12/15 10:35:47;;;;;;;30.35;16.48;;;9.60;99.90;;;;;;5047337;28;20033;-83
2023/12/15 10:38:14;;;;;;;33.80;18.48;;;9.70;99.90;;;;;;5046856;28;20119;-82
2023/12/15 10:40:41;;;;;;;40.33;21.17;;;9.60;99.90;;;;;;5079414;28;20087;-83
2023/12/15 10:43:08;;;;;;;33.97;19.30;;;9.60;99.90;;;;;;5042516;28;20028;-82
2023/12/15 10:45:35;;;;;;;39.03;21.70;;;9.70;99.90;;;;;;5047270;28;20528;-83
2023/12/15 10:48:02;;;;;;;35.55;18.55;;;9.60;99.90;;;;;;5046524;28;20037;-83
2023/12/15 10:50:29;;;;;;;32.63;19.05;;;9.60;99.90;;;;;;5074613;28;20563;-83
2023/12/15 10:52:56;;;;;;;32.17;18.42;;;9.60;99.90;;;;;;5046911;28;20039;-83
2023/12/15 10:55:26;;;;;;;30.42;17.20;;;9.60;99.90;;;;;;5029594;28;20033;-83
2023/12/15 10:57:52;;;;;;;38.95;20.77;;;9.60;99.90;;;;;;5053517;28;20489;-82
2023/12/15 11:00:19;;;;;;;42.53;22.63;;;9.60;99.90;;;;;;5063417;28;20032;-83
2023/12/15 11:02:48;;;;;;;29.58;16.77;;;9.60;99.90;;;;;;5063169;28;20555;-82
2023/12/15 11:05:16;;;;;;;30.58;15.93;;;9.60;99.90;;;;;;5031352;28;20036;-82
2023/12/15 11:07:42;;;;;;;29.90;16.13;;;9.70;99.90;;;;;;5048393;28;20037;-83
2023/12/15 11:10:09;;;;;;;32.83;17.42;;;9.70;99.90;;;;;;5080470;28;20037;-83
2023/12/15 11:12:37;;;;;;;32.05;18.83;;;9.60;99.90;;;;;;5030445;28;20029;-84
2023/12/15 11:15:04;;;;;;;32.65;17.83;;;9.60;99.90;;;;;;5062647;28;20552;-83
2023/12/15 11:17:31;;;;;;;27.25;16.20;;;9.60;99.90;;;;;;5079843;28;20512;-84
2023/12/15 11:20:08;;;;;;;22.27;14.13;;;9.60;99.90;;;;;;5041505;28;20029;-83
2023/12/15 11:22:52;;;;;;;26.60;16.02;;;9.60;99.90;;;;;;5029648;28;20021;-83
2023/12/15 11:25:25;;;;;;;34.20;17.35;;;9.70;99.90;;;;;;5046508;28;20052;-83
2023/12/15 11:27:59;;;;;;;30.42;16.73;;;9.60;99.90;;;;;;5077995;28;20616;-84
2023/12/15 11:30:34;;;;;;;27.00;15.13;;;9.70;99.90;;;;;;5057140;28;20083;-84
2023/12/15 11:33:00;;;;;;;32.97;17.30;;;9.60;99.90;;;;;;5062753;28;20030;-84
2023/12/15 11:35:35;;;;;;;30.63;15.88;;;9.60;99.90;;;;;;5045632;28;20071;-84
2023/12/15 11:38:03;;;;;;;28.48;14.32;;;9.70;99.90;;;;;;5063244;28;20028;-84
2023/12/15 11:40:30;;;;;;;30.42;15.95;;;9.70;99.90;;;;;;5079099;28;20555;-84
2023/12/15 11:42:59;;;;;;;28.13;14.13;;;9.70;99.90;;;;;;5078229;28;20124;-83
2023/12/15 11:45:29;;;;;;;23.08;12.90;;;9.70;99.90;;;;;;5062443;28;20021;-84
2023/12/15 11:47:54;;;;;;;;;;;9.60;99.90;;;;;;5030080;28;20367;-83
2023/12/15 11:50:21;;;;;;;27.08;13.07;;;9.70;99.90;;;;;;5027553;28;19916;-84
2023/12/15 11:52:49;;;;;;;22.20;12.93;;;9.70;99.90;;;;;;5032374;28;20040;-83
2023/12/15 11:55:17;;;;;;;22.85;13.00;;;9.80;99.90;;;;;;5043051;28;20044;-83
2023/12/15 11:57:43;;;;;;;27.33;15.05;;;9.70;99.90;;;;;;5079600;28;20086;-83
2023/12/15 12:00:10;;;;;;;27.85;14.80;;;9.70;99.90;;;;;;5029428;28;20562;-84
2023/12/15 12:02:36;;;;;;;24.45;14.27;;;9.60;99.90;;;;;;5040393;28;20021;-83
2023/12/15 12:05:02;;;;;;;21.08;11.75;;;9.70;99.90;;;;;;5040322;28;20509;-83
2023/12/15 12:07:28;;;;;;;23.27;12.45;;;9.70;99.90;;;;;;5079069;28;20039;-84
2023/12/15 12:09:53;;;;;;;26.00;11.32;;;9.70;99.90;;;;;;5028315;28;20029;-84
2023/12/15 12:12:19;;;;;;;27.65;13.10;;;9.70;99.90;;;;;;5046314;28;20163;-84
2023/12/15 12:14:46;;;;;;;25.35;11.27;;;9.70;99.90;;;;;;5031766;28;20041;-83
2023/12/15 12:17:13;;;;;;;21.83;12.93;;;9.70;99.90;;;;;;5062018;28;20029;-84
2023/12/15 12:19:41;;;;;;;21.95;11.77;;;9.60;99.90;;;;;;5057880;28;20112;-82
2023/12/15 12:22:12;;;;;;;19.52;10.45;;;9.60;99.90;;;;;;5044109;28;20013;-84
2023/12/15 12:24:38;;;;;;;19.02;9.95;;;9.60;99.90;;;;;;5045633;28;20035;-84
2023/12/15 12:27:07;;;;;;;12.82;8.25;;;9.60;99.90;;;;;;5079579;28;20647;-83
2023/12/15 12:29:35;;;;;;;13.52;6.70;;;9.70;99.90;;;;;;5076228;28;20445;-83
2023/12/15 12:32:01;;;;;;;14.02;7.90;;;9.70;99.90;;;;;;5062189;28;20349;-83
2023/12/15 12:34:27;;;;;;;22.23;9.35;;;9.70;99.90;;;;;;5045649;28;20032;-84